CheckWX is a tool to help pilots better visualize weather data.  It is not intended as a substitute for an official pre-flight weather briefing.

03:49:34 UTC

KENW METAR
Kenosha Regional Airport
Kenosha, Wisconsin, USA
Current

57 mins ago

KENW 170253Z 00000KT 10SM OVC070 M02/M06 A3013 RMK AO2 SLP214 T10171056 51008 $
Observed
Feb-17 @ 02:53 UTC
Visibility
10 SM
Flight Rules
VFR
Cloud Levels
  • Overcast at 7,000' AGL
Temperature
-2°C / 28°F
Dewpoint
-6°C / 21°F
Humidity
74%
Altimeter
30.13" Hg
Pressure
1020.32 hPa
Previous

2 hours ago

KENW 170153Z 00000KT 10SM OVC055 M01/M06 A3013 RMK AO2 SLP215 T10111061 $
Observed
Feb-17 @ 01:53 UTC
Visibility
10 SM
Flight Rules
VFR
Cloud Levels
  • Overcast at 5,500' AGL
Temperature
-1°C / 30°F
Dewpoint
-6°C / 21°F
Humidity
69%
Altimeter
30.13" Hg
Pressure
1020.32 hPa
Previous

3 hours ago

KENW 170053Z 17003KT 10SM BKN060 OVC080 M01/M06 A3012 RMK AO2 SLP211 T10061061 $
Observed
Feb-17 @ 00:53 UTC
Wind
  • 170° at 3 KTS
Visibility
10 SM
Flight Rules
VFR
Cloud Levels
  • Broken at 6,000' AGL
  • Overcast at 8,000' AGL
Temperature
-1°C / 30°F
Dewpoint
-6°C / 21°F
Humidity
69%
Altimeter
30.12" Hg
Pressure
1020.02 hPa